Time;durP1;ratioP1;P1;durP2;ratioP2;P2;SDS_P1;SDS_P2;PMS_P1;PMS_P2;Temp;Humidity;BMP_temperature;BMP_pressure;BME280_temperature;BME280_humidity;BME280_pressure;Samples;Min_cycle;Max_cycle;Signal;HPM_P1;HPM_P2
2022/01/19 00:02:01;;;;;;;;;;;4.20;99.90;;;;;;5081692;28;19920;-49
2022/01/19 00:04:26;;;;;;;;;;;4.20;99.90;;;;;;5070283;28;20361;-47
2022/01/19 00:06:52;;;;;;;;;;;4.10;99.90;;;;;;5070213;28;19927;-49
2022/01/19 00:09:18;;;;;;;;;;;4.20;99.90;;;;;;5071486;28;19917;-46
2022/01/19 00:11:43;;;;;;;;;;;4.20;99.90;;;;;;5072311;28;20073;-49
2022/01/19 00:14:09;;;;;;;;;;;3.50;99.90;;;;;;5069028;28;21241;-46
2022/01/19 00:16:35;;;;;;;;;;;4.20;99.90;;;;;;5083215;28;19959;-47
2022/01/19 00:19:01;;;;;;;;;;;4.10;99.90;;;;;;5070067;28;20346;-47
2022/01/19 00:21:26;;;;;;;;;;;4.10;99.90;;;;;;5071330;28;19920;-47
2022/01/19 00:23:52;;;;;;;;;;;4.10;99.90;;;;;;5072254;28;19931;-46
2022/01/19 00:26:19;;;;;;;;;;;4.10;99.90;;;;;;5069412;28;19924;-51
2022/01/19 00:28:45;;;;;;;;;;;4.10;99.90;;;;;;5068583;28;20270;-50
2022/01/19 00:31:11;;;;;;;;;;;4.10;99.90;;;;;;5070049;28;19923;-49
2022/01/19 00:33:38;;;;;;;;;;;4.00;99.90;;;;;;5069000;28;19920;-46
2022/01/19 00:36:04;;;;;;;;;;;4.10;99.90;;;;;;5045937;28;19932;-46
2022/01/19 00:38:29;;;;;;;;;;;4.10;99.90;;;;;;5091038;28;19992;-52
2022/01/19 00:40:57;;;;;;;;;;;4.10;99.90;;;;;;5072906;28;20405;-50
2022/01/19 00:43:23;;;;;;;;;;;4.00;99.90;;;;;;5083839;28;19920;-47
2022/01/19 00:45:49;;;;;;;;;;;4.00;99.90;;;;;;5071404;28;19926;-47
2022/01/19 00:48:15;;;;;;;;;;;4.30;99.90;;;;;;5067027;28;20253;-48
2022/01/19 00:50:41;;;;;;;;;;;4.00;99.90;;;;;;5091756;28;19920;-47
2022/01/19 00:53:07;;;;;;;;;;;4.00;99.90;;;;;;5072601;28;19949;-49
2022/01/19 00:55:33;;;;;;;;;;;3.90;99.90;;;;;;5092624;28;19924;-46
2022/01/19 00:57:58;;;;;;;;;;;4.00;99.90;;;;;;5071106;28;19916;-46
2022/01/19 01:00:25;;;;;;;;;;;4.00;99.90;;;;;;5074968;28;19963;-47
2022/01/19 01:02:51;;;;;;;;;;;4.10;99.90;;;;;;5057411;28;19924;-48
2022/01/19 01:05:17;;;;;;;;;;;4.00;99.90;;;;;;5088818;28;19986;-48
2022/01/19 01:07:43;;;;;;;;;;;3.90;99.90;;;;;;5071435;28;20346;-46
2022/01/19 01:10:10;;;;;;;;;;;4.00;99.90;;;;;;5084901;28;19916;-50
2022/01/19 01:13:21;;;;;;;;;;;4.00;99.90;;;;;;5104107;27;19916;-46
2022/01/19 01:15:48;;;;;;;;;;;3.90;99.90;;;;;;5081447;28;19915;-46
2022/01/19 01:18:20;;;;;;;;;;;3.90;99.90;;;;;;5088563;28;19923;-47
2022/01/19 01:20:47;;;;;;;;;;;3.90;99.90;;;;;;5071406;28;19928;-45
2022/01/19 01:23:13;;;;;;;;;;;3.90;99.90;;;;;;5093083;28;19930;-48
2022/01/19 01:25:39;;;;;;;;;;;3.90;99.90;;;;;;5083768;28;20222;-47
2022/01/19 01:28:05;;;;;;;;;;;3.90;99.90;;;;;;5088964;28;19985;-48
2022/01/19 01:30:31;;;;;;;;;;;3.90;99.90;;;;;;5069953;28;19920;-47
2022/01/19 01:32:57;;;;;;;;;;;3.90;99.90;;;;;;5087296;28;19920;-49
2022/01/19 01:35:22;;;;;;;;;;;3.90;99.90;;;;;;5066493;28;20269;-47
2022/01/19 01:37:48;;;;;;;;;;;3.90;99.90;;;;;;5087838;28;19920;-49
2022/01/19 01:40:14;;;;;;;;;;;4.00;99.90;;;;;;5072114;28;19927;-45
2022/01/19 01:42:40;;;;;;;;;;;4.00;99.90;;;;;;5087717;28;20350;-49
2022/01/19 01:45:12;;;;;;;;;;;3.90;99.90;;;;;;5059015;28;19934;-48
2022/01/19 01:47:43;;;;;;;;;;;4.00;99.90;;;;;;5069194;28;19919;-46
2022/01/19 01:55:21;;;;;;;;;;;4.00;99.90;;;;;;5093072;28;20129;-50
2022/01/19 01:57:48;;;;;;;;;;;3.90;99.90;;;;;;5048158;28;19916;-47
2022/01/19 02:00:16;;;;;;;;;;;3.90;99.90;;;;;;5084000;28;19930;-47
2022/01/19 02:02:42;;;;;;;;;;;4.00;99.90;;;;;;5101593;27;19927;-47
2022/01/19 02:05:09;;;;;;;;;;;4.00;99.90;;;;;;5074765;28;20041;-48
2022/01/19 02:08:20;;;;;;;;;;;4.00;99.90;;;;;;5068282;28;20285;-49
2022/01/19 02:10:42;;;;;;;;;;;4.00;99.90;;;;;;5062970;28;19927;-52
2022/01/19 02:23:53;;;;;;;;;;;4.00;99.90;;;;;;5066594;28;19920;-50
2022/01/19 02:26:31;;;;;;;;;;;4.00;99.90;;;;;;5049979;28;19928;-50
2022/01/19 02:29:19;;;;;;;;;;;3.90;99.90;;;;;;5068986;28;19927;-47
2022/01/19 02:42:39;;;;;;;;;;;4.00;99.90;;;;;;5047868;28;19955;-49
2022/01/19 02:49:57;;;;;;;;;;;4.00;99.90;;;;;;5049302;28;20057;-47
2022/01/19 02:52:24;;;;;;;;;;;4.00;99.90;;;;;;5049793;28;20187;-45
2022/01/19 02:54:51;;;;;;;;;;;3.90;99.90;;;;;;5047948;28;19935;-49
2022/01/19 02:57:17;;;;;;;;;;;3.90;99.90;;;;;;5063210;28;20341;-49
2022/01/19 03:10:34;;;;;;;;;;;4.00;99.90;;;;;;5052390;28;19976;-48
2022/01/19 03:13:00;;;;;;;;;;;4.00;99.90;;;;;;5065408;28;19929;-48
2022/01/19 03:15:27;;;;;;;;;;;4.00;99.90;;;;;;5051575;28;20016;-50
2022/01/19 03:17:57;;;;;;;;;;;3.90;99.90;;;;;;5064891;28;19959;-47
2022/01/19 03:20:25;;;;;;;;;;;4.00;99.90;;;;;;5044987;28;20029;-47
2022/01/19 03:23:01;;;;;;;;;;;4.00;99.90;;;;;;5049892;28;19916;-49
2022/01/19 03:25:27;;;;;;;;;;;4.20;99.90;;;;;;5082358;28;19916;-52
2022/01/19 03:27:53;;;;;;;;;;;4.00;99.90;;;;;;5030246;28;19934;-48
2022/01/19 03:30:20;;;;;;;;;;;4.10;99.90;;;;;;5050511;28;19921;-49
2022/01/19 03:32:47;;;;;;;;;;;4.00;99.90;;;;;;5054164;28;20002;-52
2022/01/19 03:35:15;;;;;;;;;;;4.00;99.90;;;;;;5044529;28;19925;-49
2022/01/19 03:37:40;;;;;;;;;;;4.00;99.90;;;;;;5101198;27;20011;-47
2022/01/19 03:40:07;;;;;;;;;;;4.00;99.90;;;;;;5100754;27;20002;-48
2022/01/19 03:42:33;;;;;;;;;;;4.30;99.90;;;;;;5068110;28;19923;-52
2022/01/19 03:44:59;;;;;;;;;;;4.00;99.90;;;;;;5068636;28;19917;-51
2022/01/19 03:47:28;;;;;;;;;;;4.00;99.90;;;;;;5067583;28;20050;-49
2022/01/19 03:49:53;;;;;;;;;;;4.00;99.90;;;;;;5067565;28;19920;-51
2022/01/19 03:52:19;;;;;;;;;;;4.00;99.90;;;;;;5067131;28;20003;-48
2022/01/19 03:54:45;;;;;;;;;;;4.10;99.90;;;;;;5097541;27;19917;-51
2022/01/19 03:57:12;;;;;;;;;;;4.10;99.90;;;;;;5067855;28;19985;-45
2022/01/19 03:59:38;;;;;;;;;;;3.60;99.90;;;;;;5109271;27;19993;-49
2022/01/19 04:02:04;;;;;;;;;;;4.00;99.90;;;;;;5064748;28;19946;-46
2022/01/19 04:07:08;;;;;;;;;;;4.00;99.90;;;;;;5063536;28;19916;-47
2022/01/19 04:09:35;;;;;;;;;;;4.00;99.90;;;;;;5068335;28;19932;-47
2022/01/19 04:12:02;;;;;;;;;;;4.00;99.90;;;;;;5063621;28;19924;-48
2022/01/19 04:14:28;;;;;;;;;;;3.90;99.90;;;;;;5066283;28;19924;-46
2022/01/19 04:17:01;;;;;;;;;;;4.00;99.90;;;;;;5067373;28;19927;-50
2022/01/19 04:19:32;;;;;;;;;;;4.00;99.90;;;;;;5100226;27;20029;-48
2022/01/19 04:22:00;;;;;;;;;;;4.00;99.90;;;;;;5069292;28;20003;-49
2022/01/19 04:24:26;;;;;;;;;;;4.00;99.90;;;;;;5060119;28;20351;-46
2022/01/19 04:27:24;;;;;;;;;;;4.00;99.90;;;;;;5068342;28;19995;-46
2022/01/19 04:33:09;;;;;;;;;;;4.00;99.90;;;;;;5069077;28;20366;-48
2022/01/19 04:35:15;;;;;;;;;;;4.00;99.90;;;;;;5063831;28;20480;-49
2022/01/19 05:07:34;;;;;;;;;;;3.90;99.90;;;;;;5077460;28;19982;-47
2022/01/19 05:15:10;;;;;;;;;;;4.00;99.90;;;;;;5105499;27;19959;-48
2022/01/19 05:17:38;;;;;;;;;;;3.90;99.90;;;;;;5056808;28;19917;-47
2022/01/19 05:20:05;;;;;;;;;;;3.90;99.90;;;;;;5104779;28;19920;-50
2022/01/19 05:22:31;;;;;;;;;;;3.70;99.90;;;;;;5086385;28;20315;-48
2022/01/19 05:24:57;;;;;;;;;;;3.90;99.90;;;;;;5070904;28;20014;-50
2022/01/19 05:27:23;;;;;;;;;;;4.00;99.90;;;;;;5090219;28;19993;-47
2022/01/19 05:29:49;;;;;;;;;;;3.90;99.90;;;;;;5088198;28;19924;-48
2022/01/19 05:32:14;;;;;;;;;;;4.00;99.90;;;;;;5055606;28;19927;-47
2022/01/19 05:34:40;;;;;;;;;;;4.00;99.90;;;;;;5054604;28;19920;-46
2022/01/19 05:37:06;;;;;;;;;;;4.00;99.90;;;;;;5076795;28;20448;-50
2022/01/19 05:39:32;;;;;;;;;;;4.00;99.90;;;;;;5067516;28;20199;-47
2022/01/19 05:41:58;;;;;;;;;;;4.00;99.90;;;;;;5069335;28;19999;-47
2022/01/19 05:44:23;;;;;;;;;;;4.00;99.90;;;;;;5032813;28;19931;-47
2022/01/19 05:46:49;;;;;;;;;;;4.00;99.90;;;;;;5067303;28;19920;-48
2022/01/19 05:49:15;;;;;;;;;;;4.00;99.90;;;;;;5067920;28;20111;-49
2022/01/19 05:51:42;;;;;;;;;;;4.00;99.90;;;;;;5063079;28;19920;-52
2022/01/19 05:54:07;;;;;;;;;;;4.00;99.90;;;;;;5082173;28;19999;-48
2022/01/19 05:56:33;;;;;;;;;;;4.00;99.90;;;;;;5030244;28;20430;-48
2022/01/19 05:58:59;;;;;;;;;;;4.00;99.90;;;;;;5066872;28;20045;-47
2022/01/19 06:01:25;;;;;;;;;;;4.00;99.90;;;;;;5067698;28;19924;-49
2022/01/19 06:03:52;;;;;;;;;;;4.00;99.90;;;;;;5082056;28;19916;-47
2022/01/19 06:06:17;;;;;;;;;;;4.00;99.90;;;;;;5065968;28;19927;-46
2022/01/19 06:08:45;;;;;;;;;;;4.00;99.90;;;;;;5057287;28;20371;-47
2022/01/19 06:11:11;;;;;;;;;;;4.00;99.90;;;;;;5066195;28;19928;-48
2022/01/19 06:13:38;;;;;;;;;;;4.00;99.90;;;;;;5063016;28;19927;-49
2022/01/19 06:16:03;;;;;;;;;;;4.00;99.90;;;;;;5065396;28;19920;-48
2022/01/19 06:18:29;;;;;;;;;;;4.00;99.90;;;;;;5049378;28;20248;-46
2022/01/19 06:20:55;;;;;;;;;;;4.00;99.90;;;;;;5050102;28;19920;-47
2022/01/19 06:23:21;;;;;;;;;;;4.00;99.90;;;;;;5048767;28;19939;-50
2022/01/19 06:25:47;;;;;;;;;;;4.00;99.90;;;;;;5078856;28;19920;-47
2022/01/19 06:28:14;;;;;;;;;;;4.00;99.90;;;;;;5046840;28;20305;-46
2022/01/19 06:30:40;;;;;;;;;;;4.00;99.90;;;;;;5065612;28;19916;-48
2022/01/19 06:33:06;;;;;;;;;;;4.00;99.90;;;;;;5065477;28;19938;-50
2022/01/19 06:35:32;;;;;;;;;;;4.00;99.90;;;;;;5046296;28;19920;-47
2022/01/19 06:37:58;;;;;;;;;;;4.00;99.90;;;;;;5049832;28;19924;-47
2022/01/19 06:40:27;;;;;;;;;;;3.90;99.90;;;;;;5049509;28;19995;-47
2022/01/19 06:42:54;;;;;;;;;;;3.90;99.90;;;;;;5050387;28;19983;-48
2022/01/19 06:45:19;;;;;;;;;;;3.90;99.90;;;;;;5049845;28;20431;-49
2022/01/19 06:47:45;;;;;;;;;;;3.90;99.90;;;;;;5065671;28;19920;-46
2022/01/19 06:50:12;;;;;;;;;;;3.90;99.90;;;;;;5047689;28;19934;-46
2022/01/19 06:52:38;;;;;;;;;;;3.90;99.90;;;;;;5050417;28;20011;-49
2022/01/19 06:55:05;;;;;;;;;;;3.90;99.90;;;;;;5025062;28;20010;-51
2022/01/19 06:57:31;;;;;;;;;;;3.90;99.90;;;;;;5060246;28;19932;-47
2022/01/19 06:59:56;;;;;;;;;;;4.00;99.90;;;;;;5037153;28;19920;-47
2022/01/19 07:02:23;;;;;;;;;;;3.90;99.90;;;;;;5043822;28;19916;-48
2022/01/19 07:04:50;;;;;;;;;;;3.90;99.90;;;;;;5062357;28;19938;-46
2022/01/19 07:07:16;;;;;;;;;;;3.70;99.90;;;;;;5061386;28;20401;-46
2022/01/19 07:09:42;;;;;;;;;;;4.00;99.90;;;;;;5068234;28;19916;-47
2022/01/19 07:12:08;;;;;;;;;;;4.00;99.90;;;;;;5047249;28;19923;-48
2022/01/19 07:14:34;;;;;;;;;;;3.90;99.90;;;;;;5048482;28;20029;-47
2022/01/19 07:17:00;;;;;;;;;;;3.90;99.90;;;;;;5047501;28;20456;-47
2022/01/19 07:19:25;;;;;;;;;;;3.90;99.90;;;;;;5052123;28;19916;-48
2022/01/19 07:21:51;;;;;;;;;;;3.90;99.90;;;;;;5047771;28;19920;-49
2022/01/19 07:24:17;;;;;;;;;;;3.90;99.90;;;;;;5067792;28;20305;-47
2022/01/19 07:26:43;;;;;;;;;;;3.90;99.90;;;;;;5032048;28;19924;-47
2022/01/19 07:29:09;;;;;;;;;;;3.90;99.90;;;;;;5048274;28;19928;-50
2022/01/19 07:31:35;;;;;;;;;;;3.90;99.90;;;;;;5050805;28;19924;-46
2022/01/19 07:34:02;;;;;;;;;;;3.90;99.90;;;;;;5049640;28;20334;-47
2022/01/19 07:36:29;;;;;;;;;;;3.90;99.90;;;;;;5051162;28;19948;-45
2022/01/19 07:38:55;;;;;;;;;;;3.90;99.90;;;;;;5086332;28;19951;-47
2022/01/19 07:41:20;;;;;;;;;;;3.90;99.90;;;;;;5058505;28;20265;-47
2022/01/19 07:43:46;;;;;;;;;;;3.90;99.90;;;;;;5069654;28;19927;-48
2022/01/19 07:46:12;;;;;;;;;;;3.90;99.90;;;;;;5087427;28;19942;-46
2022/01/19 07:48:38;;;;;;;;;;;3.90;99.90;;;;;;5074355;28;20374;-47
2022/01/19 07:51:03;;;;;;;;;;;3.90;99.90;;;;;;5101991;27;20354;-48
2022/01/19 07:53:29;;;;;;;;;;;3.90;99.90;;;;;;5073971;28;19924;-48
2022/01/19 07:55:55;;;;;;;;;;;3.90;99.90;;;;;;5054029;28;19920;-47
2022/01/19 07:58:21;;;;;;;;;;;3.80;99.90;;;;;;5069309;28;19920;-49
2022/01/19 08:00:47;;;;;;;;;;;3.90;99.90;;;;;;5072590;28;19998;-47
2022/01/19 08:03:14;;;;;;;;;;;3.90;99.90;;;;;;5053596;28;19942;-48
2022/01/19 08:05:40;;;;;;;;;;;3.90;99.90;;;;;;5071428;28;20350;-49
2022/01/19 08:08:05;;;;;;;;;;;3.90;99.90;;;;;;5054020;28;19927;-48
2022/01/19 08:10:32;;;;;;;;;;;3.90;99.90;;;;;;5065676;28;19920;-50
2022/01/19 08:13:01;;;;;;;;;;;3.90;99.90;;;;;;5089533;28;19934;-49
2022/01/19 08:15:27;;;;;;;;;;;3.90;99.90;;;;;;5088801;28;19916;-49
2022/01/19 08:17:53;;;;;;;;;;;3.90;99.90;;;;;;5070426;28;19919;-50
2022/01/19 08:20:19;;;;;;;;;;;3.90;99.90;;;;;;5085381;28;19930;-53
2022/01/19 08:22:46;;;;;;;;;;;3.90;99.90;;;;;;5086846;28;19916;-50
2022/01/19 08:25:11;;;;;;;;;;;3.90;99.90;;;;;;5072285;28;19965;-49
2022/01/19 08:27:37;;;;;;;;;;;3.90;99.90;;;;;;5094326;27;19970;-50
2022/01/19 08:30:05;;;;;;;;;;;3.90;99.90;;;;;;5094314;28;19916;-49
2022/01/19 08:32:31;;;;;;;;;;;4.00;99.90;;;;;;5069713;28;19959;-49
2022/01/19 08:34:56;;;;;;;;;;;4.00;99.90;;;;;;5086154;28;19923;-49
2022/01/19 08:37:22;;;;;;;;;;;4.10;99.90;;;;;;5071097;28;19990;-50
2022/01/19 08:39:48;;;;;;;;;;;4.00;99.90;;;;;;5071608;28;19916;-49
2022/01/19 08:42:14;;;;;;;;;;;4.10;99.90;;;;;;5087195;28;20452;-50
2022/01/19 08:44:40;;;;;;;;;;;4.10;99.90;;;;;;5084837;28;20026;-52
2022/01/19 08:47:06;;;;;;;;;;;4.10;99.90;;;;;;5082721;28;19923;-50
2022/01/19 08:49:32;;;;;;;;;;;4.10;99.90;;;;;;5076765;28;19919;-49
2022/01/19 08:51:58;;;;;;;;;;;4.20;99.90;;;;;;5087324;28;19919;-50
2022/01/19 08:54:25;;;;;;;;;;;4.20;99.90;;;;;;5073063;28;20026;-51
2022/01/19 08:56:50;;;;;;;;;;;4.20;99.90;;;;;;5090013;28;19919;-51
2022/01/19 08:59:16;;;;;;;;;;;4.20;99.90;;;;;;5092270;28;19930;-50
2022/01/19 09:01:42;;;;;;;;;;;4.30;99.90;;;;;;5089287;28;20331;-52
2022/01/19 09:04:08;;;;;;;;;;;4.40;99.90;;;;;;5070128;28;19916;-50
2022/01/19 09:06:33;;;;;;;;;;;4.40;99.90;;;;;;5068470;28;20319;-49
2022/01/19 09:08:59;;;;;;;;;;;4.50;99.90;;;;;;5051765;28;19927;-49
2022/01/19 09:11:25;;;;;;;;;;;4.50;99.90;;;;;;5088605;28;19920;-52
2022/01/19 09:13:51;;;;;;;;;;;4.50;99.90;;;;;;5070139;28;19924;-51
2022/01/19 09:16:16;;;;;;;;;;;4.50;99.90;;;;;;5049652;28;20468;-49
2022/01/19 09:18:42;;;;;;;;;;;4.60;99.90;;;;;;5068725;28;19966;-50
2022/01/19 09:21:14;;;;;;;;;;;4.60;99.90;;;;;;5085180;28;19924;-50
2022/01/19 09:23:40;;;;;;;;;;;4.60;99.90;;;;;;5071304;28;19947;-46
2022/01/19 09:26:06;;;;;;;;;;;4.70;99.90;;;;;;5051014;28;19989;-47
2022/01/19 09:28:32;;;;;;;;;;;4.70;99.90;;;;;;5036041;28;19959;-46
2022/01/19 09:31:02;;;;;;;;;;;4.80;99.90;;;;;;5068667;28;19927;-47
2022/01/19 09:33:30;;;;;;;;;;;4.80;99.90;;;;;;5064958;28;19935;-48
2022/01/19 09:38:29;;;;;;;;;;;4.90;99.90;;;;;;5050044;28;20058;-48
2022/01/19 09:40:56;;;;;;;;;;;4.90;99.90;;;;;;5066134;28;20340;-47
2022/01/19 09:43:22;;;;;;;;;;;4.90;99.90;;;;;;5028535;28;20305;-47
2022/01/19 09:45:52;;;;;;;;;;;4.90;99.90;;;;;;5047524;28;19975;-48
2022/01/19 09:48:17;;;;;;;;;;;4.90;99.90;;;;;;5046798;28;20363;-47
2022/01/19 09:50:44;;;;;;;;;;;4.90;99.90;;;;;;5067846;28;19923;-48
2022/01/19 09:53:09;;;;;;;;;;;5.00;99.90;;;;;;5045317;28;19923;-48
2022/01/19 09:55:41;;;;;;;;;;;5.00;99.90;;;;;;5064972;28;19916;-48
2022/01/19 09:58:08;;;;;;;;;;;5.00;99.90;;;;;;5030831;28;19924;-49
2022/01/19 10:00:34;;;;;;;;;;;5.00;99.90;;;;;;5066974;28;19924;-46
2022/01/19 10:03:18;;;;;;;;;;;5.00;99.90;;;;;;5048945;28;19966;-47
2022/01/19 10:05:54;;;;;;;;;;;5.00;99.90;;;;;;5043029;28;19920;-50
2022/01/19 10:08:29;;;;;;;;;;;5.00;99.90;;;;;;5064487;28;19920;-50
2022/01/19 10:19:26;;;;;;;;;;;4.90;99.90;;;;;;5047386;28;19978;-47
2022/01/19 10:22:10;;;;;;;;;;;4.90;99.90;;;;;;5031100;28;19924;-47
2022/01/19 10:24:42;;;;;;;;;;;4.90;99.90;;;;;;5066818;28;19924;-48
2022/01/19 10:27:22;;;;;;;;;;;4.90;99.90;;;;;;5046484;28;20027;-48
2022/01/19 10:30:14;;;;;;;;;;;4.80;99.90;;;;;;5064633;28;19954;-47
2022/01/19 10:32:49;;;;;;;;;;;4.80;99.90;;;;;;5062865;28;19920;-48
2022/01/19 10:35:26;;;;;;;;;;;4.80;99.90;;;;;;5047819;28;20308;-47
2022/01/19 10:38:12;;;;;;;;;;;4.80;99.90;;;;;;5051149;28;20308;-47
2022/01/19 10:40:40;;;;;;;;;;;4.80;99.90;;;;;;5049226;28;19999;-47
2022/01/19 10:43:24;;;;;;;;;;;4.80;99.90;;;;;;5049489;28;20007;-48
2022/01/19 10:45:49;;;;;;;;;;;4.80;99.90;;;;;;5047696;28;19924;-47
2022/01/19 10:48:31;;;;;;;;;;;4.80;99.90;;;;;;5052123;28;19966;-47
2022/01/19 10:51:11;;;;;;;;;;;4.80;99.90;;;;;;5050847;28;20366;-48
2022/01/19 10:53:38;;;;;;;;;;;4.80;99.90;;;;;;5063858;28;19921;-47
2022/01/19 10:56:05;;;;;;;;;;;4.80;99.90;;;;;;5064833;28;19920;-47
2022/01/19 10:58:32;;;;;;;;;;;4.80;99.90;;;;;;5048228;28;19970;-49
2022/01/19 11:00:58;;;;;;;;;;;4.80;99.90;;;;;;5048595;28;19924;-47
2022/01/19 11:03:26;;;;;;;;;;;4.80;99.90;;;;;;5049739;28;19927;-46
2022/01/19 11:05:53;;;;;;;;;;;4.80;99.90;;;;;;5050884;28;20511;-47
2022/01/19 11:08:21;;;;;;;;;;;4.80;99.90;;;;;;5048216;28;19928;-46
2022/01/19 11:10:49;;;;;;;;;;;4.80;99.90;;;;;;5081720;28;19920;-47
2022/01/19 11:13:18;;;;;;;;;;;4.80;99.90;;;;;;5046352;28;19965;-47
2022/01/19 11:15:44;;;;;;;;;;;4.80;99.90;;;;;;5049510;28;19920;-47
2022/01/19 11:18:10;;;;;;;;;;;4.80;99.90;;;;;;5027180;28;19951;-49
2022/01/19 11:20:43;;;;;;;;;;;4.90;99.90;;;;;;5046402;28;20010;-47
2022/01/19 11:23:27;;;;;;;;;;;4.90;99.90;;;;;;5062945;28;20412;-47
2022/01/19 11:26:15;;;;;;;;;;;4.90;99.90;;;;;;5033702;28;19931;-48
2022/01/19 11:28:49;;;;;;;;;;;4.90;99.90;;;;;;5047276;28;20043;-49
2022/01/19 11:31:21;;;;;;;;;;;5.00;99.90;;;;;;5045145;28;19936;-47
2022/01/19 11:33:51;;;;;;;;;;;5.00;99.90;;;;;;5065449;28;19927;-47
2022/01/19 11:36:19;;;;;;;;;;;5.00;99.90;;;;;;5061697;28;19920;-49
2022/01/19 11:38:46;;;;;;;;;;;5.00;99.90;;;;;;5060683;28;19991;-47
2022/01/19 11:41:14;;;;;;;;;;;5.10;99.90;;;;;;5063137;28;19924;-48
2022/01/19 11:43:51;;;;;;;;;;;5.10;99.90;;;;;;5046825;28;20003;-47
2022/01/19 11:46:29;;;;;;;;;;;5.20;99.90;;;;;;5045741;28;20384;-47
2022/01/19 11:48:55;;;;;;;;;;;5.20;99.90;;;;;;5043120;28;20355;-47
2022/01/19 11:51:29;;;;;;;;;;;5.30;99.90;;;;;;5075869;28;20003;-50
2022/01/19 11:54:13;;;;;;;;;;;5.40;99.90;;;;;;5078967;28;19920;-50
2022/01/19 11:56:57;;;;;;;;;;;5.50;99.90;;;;;;5069363;28;19916;-50
2022/01/19 11:59:25;;;;;;;;;;;5.50;99.90;;;;;;5068827;28;19969;-49
2022/01/19 12:01:51;;;;;;;;;;;5.60;99.90;;;;;;5049210;28;19947;-50
2022/01/19 12:04:18;;;;;;;;;;;5.70;99.90;;;;;;5066679;28;20031;-51
2022/01/19 12:06:45;;;;;;;;;;;5.70;99.90;;;;;;5068443;28;20468;-49
2022/01/19 12:09:12;;;;;;;;;;;5.70;99.90;;;;;;5053647;28;19982;-49
2022/01/19 12:11:42;;;;;;;;;;;5.70;99.90;;;;;;5047816;28;19916;-50
2022/01/19 12:14:18;;;;;;;;;;;5.70;99.90;;;;;;5066874;28;19967;-49
2022/01/19 12:16:55;;;;;;;;;;;5.70;99.90;;;;;;5048887;28;20771;-50
2022/01/19 12:19:27;;;;;;;;;;;5.60;99.90;;;;;;5068172;28;19916;-49
2022/01/19 12:21:55;;;;;;;;;;;5.60;99.90;;;;;;5068900;28;19970;-48
2022/01/19 12:24:26;;;;;;;;;;;5.60;99.90;;;;;;5047032;28;20035;-49
2022/01/19 12:27:04;;;;;;;;;;;5.60;99.90;;;;;;5067601;28;19923;-49
2022/01/19 12:29:33;;;;;;;;;;;5.60;99.90;;;;;;5049717;28;20008;-48
2022/01/19 12:32:00;;;;;;;;;;;5.60;99.90;;;;;;5070404;28;19969;-50
2022/01/19 12:34:26;;;;;;;;;;;5.70;99.90;;;;;;5064687;28;20004;-50
2022/01/19 12:36:54;;;;;;;;;;;5.70;99.90;;;;;;5053082;28;20388;-48
2022/01/19 12:39:26;;;;;;;;;;;5.60;99.90;;;;;;5067799;28;19924;-53
2022/01/19 12:42:01;;;;;;;;;;;5.60;99.90;;;;;;5068336;28;19962;-52
2022/01/19 12:44:47;;;;;;;;;;;5.60;99.90;;;;;;5066154;28;19924;-49
2022/01/19 12:47:28;;;;;;;;;;;5.60;99.90;;;;;;5066758;28;19920;-51
2022/01/19 12:50:03;;;;;;;;;;;5.60;99.90;;;;;;5066862;28;20295;-52
2022/01/19 12:52:30;;;;;;;;;;;5.60;99.90;;;;;;5064901;28;19920;-49
2022/01/19 12:54:56;;;;;;;;;;;5.60;99.90;;;;;;5068497;28;19916;-50
2022/01/19 12:57:22;;;;;;;;;;;5.60;99.90;;;;;;5065487;28;20321;-51
2022/01/19 12:59:49;;;;;;;;;;;5.70;99.90;;;;;;5032875;28;19916;-50
2022/01/19 13:02:20;;;;;;;;;;;5.70;99.90;;;;;;5097100;28;19928;-50
2022/01/19 13:04:47;;;;;;;;;;;5.70;99.90;;;;;;5082600;28;20428;-48
2022/01/19 13:07:17;;;;;;;;;;;5.20;99.90;;;;;;5066104;28;19917;-48
2022/01/19 13:10:24;;;;;;;;;;;5.70;99.90;;;;;;5066113;28;20006;-50
2022/01/19 13:13:07;;;;;;;;;;;5.80;99.90;;;;;;5066189;28;19920;-51
2022/01/19 13:15:49;;;;;;;;;;;5.80;99.90;;;;;;5066039;28;19922;-49
2022/01/19 13:18:16;;;;;;;;;;;5.80;99.90;;;;;;5065895;28;20003;-52
2022/01/19 13:20:49;;;;;;;;;;;5.80;99.90;;;;;;5065391;28;19916;-50
2022/01/19 13:23:15;;;;;;;;;;;5.70;99.90;;;;;;5067240;28;19921;-49
2022/01/19 13:25:41;;;;;;;;;;;5.70;99.90;;;;;;5047014;28;19917;-49
2022/01/19 13:28:06;;;;;;;;;;;5.70;99.90;;;;;;5063680;28;19924;-49
2022/01/19 13:30:33;;;;;;;;;;;5.70;99.90;;;;;;5064419;28;19917;-51
2022/01/19 13:33:09;;;;;;;;;;;5.70;99.90;;;;;;5066935;28;20012;-51
2022/01/19 13:35:35;;;;;;;;;;;5.70;99.90;;;;;;5065199;28;19916;-49
2022/01/19 13:38:08;;;;;;;;;;;5.70;99.90;;;;;;5072393;28;19919;-48
2022/01/19 13:40:34;;;;;;;;;;;5.70;99.90;;;;;;5086517;28;19923;-50
2022/01/19 13:43:03;;;;;;;;;;;5.70;99.90;;;;;;5052103;28;21183;-50
2022/01/19 13:45:48;;;;;;;;;;;5.70;99.90;;;;;;5056674;28;20007;-50
2022/01/19 13:48:32;;;;;;;;;;;5.60;99.90;;;;;;5052827;28;20251;-48
2022/01/19 13:51:00;;;;;;;;;;;5.60;99.90;;;;;;5082732;28;19924;-53
2022/01/19 13:53:28;;;;;;;;;;;5.60;99.90;;;;;;5066490;28;19923;-50
2022/01/19 13:55:55;;;;;;;;;;;5.60;99.90;;;;;;5068827;28;19923;-52
2022/01/19 13:58:21;;;;;;;;;;;5.60;99.90;;;;;;5084490;28;20403;-49
2022/01/19 14:00:55;;;;;;;;;;;5.60;99.90;;;;;;5074816;28;19997;-50
2022/01/19 14:03:22;;;;;;;;;;;5.50;99.90;;;;;;5086152;28;19920;-50
2022/01/19 14:05:51;;;;;;;;;;;5.50;99.90;;;;;;5071000;28;19919;-49
2022/01/19 14:08:27;;;;;;;;;;;5.50;99.90;;;;;;5070725;28;19924;-49
2022/01/19 14:10:53;;;;;;;;;;;5.50;99.90;;;;;;5070714;28;19927;-51
2022/01/19 14:13:32;;;;;;;;;;;5.50;99.90;;;;;;5080971;28;19924;-51
2022/01/19 14:16:18;;;;;;;;;;;5.40;99.90;;;;;;5087070;28;19923;-50
2022/01/19 14:19:04;;;;;;;;;;;5.40;99.90;;;;;;5070527;28;19923;-49
2022/01/19 14:21:29;;;;;;;;;;;5.40;99.90;;;;;;5053497;28;20002;-49
2022/01/19 14:23:59;;;;;;;;;;;5.40;99.90;;;;;;5086762;28;20007;-48
2022/01/19 14:26:25;;;;;;;;;;;5.40;99.90;;;;;;5084723;28;20378;-48
2022/01/19 14:29:09;;;;;;;;;;;5.40;99.90;;;;;;5082875;28;19931;-52
2022/01/19 14:31:45;;;;;;;;;;;5.40;99.90;;;;;;5068682;28;19970;-49
2022/01/19 14:34:11;;;;;;;;;;;5.40;99.90;;;;;;5086345;28;20587;-51
2022/01/19 14:36:37;;;;;;;;;;;5.40;99.90;;;;;;5083629;28;19920;-51
2022/01/19 14:39:02;;;;;;;;;;;5.40;99.90;;;;;;5064995;28;19924;-53
2022/01/19 14:41:31;;;;;;;;;;;5.30;99.90;;;;;;5065712;28;19917;-53
2022/01/19 14:44:19;;;;;;;;;;;5.40;99.90;;;;;;5045485;28;20258;-49
2022/01/19 14:47:13;;;;;;;;;;;5.40;99.90;;;;;;5043556;28;19916;-51
2022/01/19 14:49:38;;;;;;;;;;;5.40;99.90;;;;;;5064992;28;19921;-49
2022/01/19 14:52:04;;;;;;;;;;;5.40;99.90;;;;;;5064061;28;20390;-52
2022/01/19 14:54:30;;;;;;;;;;;5.40;99.90;;;;;;5048200;28;19924;-50
2022/01/19 14:56:56;;;;;;;;;;;5.40;99.90;;;;;;5046899;28;20082;-53
2022/01/19 14:59:23;;;;;;;;;;;5.40;99.90;;;;;;5043622;28;19920;-51
2022/01/19 15:01:51;;;;;;;;;;;5.40;99.90;;;;;;5046391;28;19917;-50
2022/01/19 15:04:17;;;;;;;;;;;5.40;99.90;;;;;;5065246;28;19974;-50
2022/01/19 15:06:44;;;;;;;;;;;5.40;99.90;;;;;;5031951;28;19959;-50
2022/01/19 15:09:11;;;;;;;;;;;5.40;99.90;;;;;;5039903;28;19920;-50
2022/01/19 15:11:37;;;;;;;;;;;5.40;99.90;;;;;;5064641;28;19985;-50
2022/01/19 15:14:03;;;;;;;;;;;5.50;99.90;;;;;;5043565;28;19924;-50
2022/01/19 15:16:28;;;;;;;;;;;5.40;99.90;;;;;;5065968;28;20429;-49
2022/01/19 15:18:55;;;;;;;;;;;5.50;99.90;;;;;;5029368;28;19985;-48
2022/01/19 15:21:21;;;;;;;;;;;5.50;99.90;;;;;;5064426;28;19916;-48
2022/01/19 15:23:50;;;;;;;;;;;5.50;99.90;;;;;;5044304;28;19920;-49
2022/01/19 15:26:18;;;;;;;;;;;5.50;99.90;;;;;;5045291;28;19955;-52
2022/01/19 15:28:45;;;;;;;;;;;5.40;99.90;;;;;;5061665;28;19929;-49
2022/01/19 15:31:11;;;;;;;;;;;5.80;99.90;;;;;;5067132;28;19931;-50
2022/01/19 15:33:37;;;;;;;;;;;5.50;99.90;;;;;;5065802;28;19927;-49
2022/01/19 15:36:06;;;;;;;;;;;5.40;99.90;;;;;;5049012;28;19925;-49
2022/01/19 15:38:32;;;;;;;;;;;5.50;99.90;;;;;;5070617;28;19924;-51
2022/01/19 15:40:59;;;;;;;;;;;5.50;99.90;;;;;;5056508;28;20326;-50
2022/01/19 15:43:25;;;;;;;;;;;5.50;99.90;;;;;;5055822;28;20325;-48
2022/01/19 15:45:50;;;;;;;;;;;5.50;99.90;;;;;;5050727;28;19922;-48
2022/01/19 15:48:16;;;;;;;;;;;5.60;99.90;;;;;;5072454;28;19928;-49
2022/01/19 15:50:48;;;;;;;;;;;5.60;99.90;;;;;;5069547;28;19960;-48
2022/01/19 15:53:14;;;;;;;;;;;5.60;99.90;;;;;;5089314;28;20567;-52
2022/01/19 15:55:40;;;;;;;;;;;5.60;99.90;;;;;;5035357;28;19924;-51
2022/01/19 15:58:06;;;;;;;;;;;5.70;99.90;;;;;;5070848;28;19916;-50
2022/01/19 16:00:32;;;;;;;;;;;5.70;99.90;;;;;;5052021;28;19928;-48
2022/01/19 16:02:58;;;;;;;;;;;5.80;99.90;;;;;;5057683;28;19951;-49
2022/01/19 16:05:25;;;;;;;;;;;5.80;99.90;;;;;;5068118;28;19975;-49
2022/01/19 16:07:50;;;;;;;;;;;5.90;99.90;;;;;;5039273;28;19928;-49
2022/01/19 16:10:16;;;;;;;;;;;5.90;99.90;;;;;;5087307;28;19920;-50
2022/01/19 16:12:43;;;;;;;;;;;6.00;99.90;;;;;;5052293;28;20378;-49
2022/01/19 16:15:09;;;;;;;;;;;6.00;99.90;;;;;;5068952;28;19924;-50